Hafnia Henriette — 9HA4204 — position and weather

sailwx.info

Track history (hours):
 
Tides and Currents Weather Stations Pressure Air Temp Water Temp Dewpoint Dewpoint Depression Visibility Wind Speed Wind Dir Waves Ship Positions

Hafnia Henriette

Last reported at 2018-Jun-22 11:00 UTC. Time now 2018-Jun-22 11:03 UTC.
Position N 36°22' W 023°58'.

Length 183 m; draft 10.7 m.

Type: Tanker. MMSI: 249345000.

Date/timePositionNaut miles runAvg speedWind from/ knotsBaromVisibWave heightAir tempDewpointWater temp
2018-Jun-22 11:00N 36°22' W 023°58'1113.2
2018-Jun-22 10:10N 36°22' W 023°44'213.2
2018-Jun-22 10:00N 36°22' W 023°41'  
2018-Jun-16 01:32N 37°04' W 006°52'0 0.3
2018-Jun-16 01:26N 37°04' W 006°52'0 0.0
2018-Jun-16 00:56N 37°04' W 006°52'0 0.0
2018-Jun-16 00:17N 37°04' W 006°52'0 0.1
2018-Jun-15 23:56N 37°04' W 006°52'67 4.8
2018-Jun-15 10:02N 36°12' W 007°43'213.0
2018-Jun-15 09:54N 36°11' W 007°45'513.0
2018-Jun-15 09:30N 36°07' W 007°49'9 4.0
2018-Jun-15 07:15N 36°00' W 007°57'2 6.0
2018-Jun-15 07:00N 35°59' W 007°58'913.3
2018-Jun-15 06:17N 35°52' W 008°06'413.2
2018-Jun-15 06:00N 35°49' W 008°09'48011.9
2018-Jun-13 13:36N 29°44' W 014°20'112.2
2018-Jun-13 13:29N 29°43' W 014°21'612.3
2018-Jun-13 13:00N 29°38' W 014°24'712.4
2018-Jun-13 12:27N 29°32' W 014°28'3912.1
2018-Jun-13 09:13N 28°58' W 014°50'412.2
2018-Jun-13 08:53N 28°54' W 014°52'512.2
2018-Jun-13 08:29N 28°50' W 014°55'612.1
2018-Jun-13 08:00N 28°45' W 014°58'611.9
2018-Jun-13 07:30N 28°40' W 015°02'611.8
2018-Jun-13 07:00N 28°35' W 015°05'611.8
2018-Jun-13 06:30N 28°29' W 015°08'611.6
2018-Jun-13 06:00N 28°24' W 015°11'611.7
2018-Jun-13 05:30N 28°19' W 015°14'611.6
2018-Jun-13 04:59N 28°13' W 015°16'611.6
2018-Jun-13 04:30N 28°09' W 015°19'5 9.7
2018-Jun-13 04:00N 28°07' W 015°25'0 0.3
2018-Jun-13 03:29N 28°07' W 015°25'0 0.0
2018-Jun-13 02:59N 28°07' W 015°25'0 0.0
2018-Jun-13 02:29N 28°07' W 015°25'0 0.1
2018-Jun-13 01:59N 28°07' W 015°25'0 0.0
2018-Jun-13 01:20N 28°07' W 015°25'0 0.0
2018-Jun-13 00:50N 28°07' W 015°25'0 0.0
2018-Jun-13 00:20N 28°07' W 015°25'0 0.0
2018-Jun-12 23:50N 28°07' W 015°25'0 0.0
2018-Jun-12 23:23N 28°07' W 015°25'0 0.1
2018-Jun-12 22:53N 28°07' W 015°25'0 0.0
2018-Jun-12 22:23N 28°07' W 015°25'0 0.0
2018-Jun-12 21:53N 28°07' W 015°25'0 0.0
2018-Jun-12 21:23N 28°07' W 015°25'0 0.0
2018-Jun-12 20:56N 28°07' W 015°25'0 0.0
2018-Jun-12 20:26N 28°07' W 015°25'0 0.0
2018-Jun-12 19:56N 28°07' W 015°25'0 0.1
2018-Jun-12 19:26N 28°07' W 015°25'0 0.1
2018-Jun-12 18:56N 28°07' W 015°25'0 0.0
2018-Jun-12 18:26N 28°07' W 015°25'0 0.0
2018-Jun-12 17:59N 28°07' W 015°25'0 0.0
2018-Jun-12 17:29N 28°07' W 015°25'0 0.0
2018-Jun-12 16:59N 28°07' W 015°25'0 0.0
2018-Jun-12 16:29N 28°07' W 015°25'0 0.3
2018-Jun-12 16:00N 28°07' W 015°25'1 3.0
2018-Jun-12 15:30N 28°08' W 015°24'0 0.5
2018-Jun-12 15:00N 28°08' W 015°24'0 0.1
2018-Jun-12 14:30N 28°08' W 015°24'0 0.0
2018-Jun-12 14:00N 28°08' W 015°24'0 0.0
2018-Jun-12 13:21N 28°08' W 015°24'0 0.0
2018-Jun-12 12:51N 28°08' W 015°24'0 0.0
2018-Jun-12 12:21N 28°08' W 015°24'0 0.0
2018-Jun-12 11:54N 28°08' W 015°24'0 0.0
2018-Jun-12 11:24N 28°08' W 015°24'  
Track history (hours):
 
Tides and Currents Weather Stations Pressure Air Temp Water Temp Dewpoint Dewpoint Depression Visibility Wind Speed Wind Dir Waves Ship Positions

Hafnia Henriette

Last reported at 2018-Jun-22 11:00 UTC. Time now 2018-Jun-22 11:03 UTC.
Position N 36°22' W 023°58'.

Length 183 m; draft 10.7 m.

Type: Tanker. MMSI: 249345000.

Date/timePositionNaut miles runAvg speedWind from/ knotsBaromVisibWave heightAir tempDewpointWater temp
2018-Jun-22 11:00N 36°22' W 023°58'1113.2
2018-Jun-22 10:10N 36°22' W 023°44'213.2
2018-Jun-22 10:00N 36°22' W 023°41'  
2018-Jun-16 01:32N 37°04' W 006°52'0 0.3
2018-Jun-16 01:26N 37°04' W 006°52'0 0.0
2018-Jun-16 00:56N 37°04' W 006°52'0 0.0
2018-Jun-16 00:17N 37°04' W 006°52'0 0.1
2018-Jun-15 23:56N 37°04' W 006°52'67 4.8
2018-Jun-15 10:02N 36°12' W 007°43'213.0
2018-Jun-15 09:54N 36°11' W 007°45'513.0
2018-Jun-15 09:30N 36°07' W 007°49'9 4.0
2018-Jun-15 07:15N 36°00' W 007°57'2 6.0
2018-Jun-15 07:00N 35°59' W 007°58'913.3
2018-Jun-15 06:17N 35°52' W 008°06'413.2
2018-Jun-15 06:00N 35°49' W 008°09'48011.9
2018-Jun-13 13:36N 29°44' W 014°20'112.2
2018-Jun-13 13:29N 29°43' W 014°21'612.3
2018-Jun-13 13:00N 29°38' W 014°24'712.4
2018-Jun-13 12:27N 29°32' W 014°28'3912.1
2018-Jun-13 09:13N 28°58' W 014°50'412.2
2018-Jun-13 08:53N 28°54' W 014°52'512.2
2018-Jun-13 08:29N 28°50' W 014°55'612.1
2018-Jun-13 08:00N 28°45' W 014°58'611.9
2018-Jun-13 07:30N 28°40' W 015°02'611.8
2018-Jun-13 07:00N 28°35' W 015°05'611.8
2018-Jun-13 06:30N 28°29' W 015°08'611.6
2018-Jun-13 06:00N 28°24' W 015°11'611.7
2018-Jun-13 05:30N 28°19' W 015°14'611.6
2018-Jun-13 04:59N 28°13' W 015°16'611.6
2018-Jun-13 04:30N 28°09' W 015°19'5 9.7
2018-Jun-13 04:00N 28°07' W 015°25'0 0.3
2018-Jun-13 03:29N 28°07' W 015°25'0 0.0
2018-Jun-13 02:59N 28°07' W 015°25'0 0.0
2018-Jun-13 02:29N 28°07' W 015°25'0 0.1
2018-Jun-13 01:59N 28°07' W 015°25'0 0.0
2018-Jun-13 01:20N 28°07' W 015°25'0 0.0
2018-Jun-13 00:50N 28°07' W 015°25'0 0.0
2018-Jun-13 00:20N 28°07' W 015°25'0 0.0
2018-Jun-12 23:50N 28°07' W 015°25'0 0.0
2018-Jun-12 23:23N 28°07' W 015°25'0 0.1
2018-Jun-12 22:53N 28°07' W 015°25'0 0.0
2018-Jun-12 22:23N 28°07' W 015°25'0 0.0
2018-Jun-12 21:53N 28°07' W 015°25'0 0.0
2018-Jun-12 21:23N 28°07' W 015°25'0 0.0
2018-Jun-12 20:56N 28°07' W 015°25'0 0.0
2018-Jun-12 20:26N 28°07' W 015°25'0 0.0
2018-Jun-12 19:56N 28°07' W 015°25'0 0.1
2018-Jun-12 19:26N 28°07' W 015°25'0 0.1
2018-Jun-12 18:56N 28°07' W 015°25'0 0.0
2018-Jun-12 18:26N 28°07' W 015°25'0 0.0
2018-Jun-12 17:59N 28°07' W 015°25'0 0.0
2018-Jun-12 17:29N 28°07' W 015°25'0 0.0
2018-Jun-12 16:59N 28°07' W 015°25'0 0.0
2018-Jun-12 16:29N 28°07' W 015°25'0 0.3
2018-Jun-12 16:00N 28°07' W 015°25'1 3.0
2018-Jun-12 15:30N 28°08' W 015°24'0 0.5
2018-Jun-12 15:00N 28°08' W 015°24'0 0.1
2018-Jun-12 14:30N 28°08' W 015°24'0 0.0
2018-Jun-12 14:00N 28°08' W 015°24'0 0.0
2018-Jun-12 13:21N 28°08' W 015°24'0 0.0
2018-Jun-12 12:51N 28°08' W 015°24'0 0.0
2018-Jun-12 12:21N 28°08' W 015°24'0 0.0
2018-Jun-12 11:54N 28°08' W 015°24'0 0.0
2018-Jun-12 11:24N 28°08' W 015°24'  

Dump ship's entire track history